createdAt,value
2022-12-15T00:00:45.380Z,-1.08
2022-12-15T00:03:48.347Z,-0.82
2022-12-15T00:06:34.087Z,-1.13
2022-12-15T00:09:20.786Z,-1.22
2022-12-15T00:12:06.716Z,-1.21
2022-12-15T00:14:53.305Z,-1.28
2022-12-15T00:17:38.856Z,-1.29
2022-12-15T00:20:27.600Z,-0.91
2022-12-15T00:23:13.383Z,-1.27
2022-12-15T00:25:59.277Z,-1.32
2022-12-15T00:28:45.051Z,-1.24
2022-12-15T00:31:31.668Z,-1.31
2022-12-15T00:34:17.666Z,-1.37
2022-12-15T00:37:05.287Z,-1.06
2022-12-15T00:39:33.467Z,-1.29
2022-12-15T00:42:02.091Z,-1.28
2022-12-15T00:44:30.251Z,-1.21
2022-12-15T00:46:57.902Z,-1.13
2022-12-15T00:49:45.590Z,-0.93
2022-12-15T00:52:33.983Z,-0.80
2022-12-15T00:55:19.755Z,-1.01
2022-12-15T00:58:05.982Z,-0.94
2022-12-15T01:00:51.937Z,-0.92
2022-12-15T01:03:40.448Z,-0.64
2022-12-15T01:06:27.954Z,-0.69
2022-12-15T01:09:15.952Z,-0.62
2022-12-15T01:12:02.052Z,-0.98
2022-12-15T01:14:48.600Z,-0.79
2022-12-15T01:17:34.748Z,-0.46
2022-12-15T01:20:18.262Z,-0.52
2022-12-15T01:22:47.259Z,-0.44
2022-12-15T01:25:18.084Z,-0.43
2022-12-15T01:27:46.937Z,-0.71
2022-12-15T01:30:18.591Z,-0.53
2022-12-15T01:32:46.934Z,-0.83
2022-12-15T01:35:15.948Z,-0.71
2022-12-15T01:37:44.175Z,-0.77
2022-12-15T01:40:34.506Z,-0.47
2022-12-15T01:43:02.886Z,-0.73
2022-12-15T01:45:52.756Z,-0.19
2022-12-15T01:48:26.736Z,-0.45
2022-12-15T01:51:00.674Z,-0.48
2022-12-15T01:53:30.755Z,-0.70
2022-12-15T01:56:01.564Z,-0.37
2022-12-15T01:58:29.920Z,-0.87
2022-12-15T02:00:59.067Z,-0.80
2022-12-15T02:03:27.591Z,-0.86
2022-12-15T02:05:56.824Z,-0.75
2022-12-15T02:08:28.036Z,-0.92
2022-12-15T02:11:09.633Z,-0.51
2022-12-15T02:13:40.576Z,-0.12
2022-12-15T02:16:14.983Z,-0.46
2022-12-15T02:18:49.620Z,-0.48
2022-12-15T02:21:20.110Z,-0.68
2022-12-15T02:24:15.401Z,-0.18
2022-12-15T02:27:36.986Z,0.05
2022-12-15T02:30:20.994Z,-0.01
2022-12-15T02:32:55.754Z,-0.31
2022-12-15T02:35:27.878Z,-0.25
2022-12-15T02:37:56.642Z,-0.61
2022-12-15T02:40:24.852Z,-0.68
2022-12-15T02:42:56.823Z,-0.34
2022-12-15T02:45:34.874Z,-0.24
2022-12-15T02:48:13.930Z,-0.20
2022-12-15T02:50:56.552Z,-0.14
2022-12-15T02:53:38.153Z,-0.15
2022-12-15T02:56:09.179Z,-0.35
2022-12-15T02:58:42.534Z,-0.23
2022-12-15T03:01:16.577Z,-0.17
2022-12-15T03:03:46.172Z,-0.39
2022-12-15T03:06:14.954Z,-0.29
2022-12-15T03:08:43.781Z,-0.55
2022-12-15T03:11:11.931Z,-0.44
2022-12-15T03:13:40.433Z,-0.42
2022-12-15T03:16:09.325Z,-0.32
2022-12-15T03:18:39.821Z,-0.10
2022-12-15T03:21:08.610Z,-0.44
2022-12-15T03:23:37.081Z,-0.39
2022-12-15T03:26:06.696Z,-0.36
2022-12-15T03:28:35.617Z,-0.22
2022-12-15T03:31:03.891Z,-0.44
2022-12-15T03:33:34.775Z,-0.11
2022-12-15T03:36:04.863Z,-0.08
2022-12-15T03:38:33.463Z,-0.37
2022-12-15T03:41:01.824Z,-0.51
2022-12-15T03:43:30.919Z,-0.47
2022-12-15T03:45:59.604Z,-0.49
2022-12-15T03:48:28.082Z,-0.45
2022-12-15T03:50:56.638Z,-0.42
2022-12-15T03:53:26.661Z,-0.12
2022-12-15T03:55:55.146Z,-0.37
2022-12-15T03:58:23.718Z,-0.41
2022-12-15T04:00:51.886Z,-0.41
2022-12-15T04:03:20.511Z,-0.37
2022-12-15T04:05:48.966Z,-0.29
2022-12-15T04:08:17.408Z,-0.40
2022-12-15T04:10:47.032Z,-0.16
2022-12-15T04:13:15.610Z,-0.39
2022-12-15T04:15:43.851Z,-0.34
2022-12-15T04:18:12.494Z,-0.30
2022-12-15T04:20:40.388Z,-0.31
2022-12-15T04:23:09.045Z,-0.40
2022-12-15T04:25:55.727Z,-0.23
2022-12-15T04:28:43.142Z,-0.14
2022-12-15T04:31:31.467Z,-0.10
2022-12-15T04:34:19.598Z,-0.10
2022-12-15T04:37:06.631Z,-0.13
2022-12-15T04:39:53.418Z,-0.18
2022-12-15T04:42:39.451Z,-0.23
2022-12-15T04:45:28.083Z,0.04
2022-12-15T04:48:14.055Z,-0.30
2022-12-15T04:50:59.991Z,-0.39
2022-12-15T04:53:45.848Z,-0.36
2022-12-15T04:56:33.463Z,-0.16
2022-12-15T04:59:19.794Z,-0.25
2022-12-15T05:02:07.839Z,-0.09
2022-12-15T05:04:54.002Z,-0.38
2022-12-15T05:07:40.114Z,-0.36
2022-12-15T05:10:26.934Z,-0.20
2022-12-15T05:13:13.110Z,-0.32
2022-12-15T05:15:59.202Z,-0.37
2022-12-15T05:18:46.774Z,-0.11
2022-12-15T05:21:32.305Z,-0.28
2022-12-15T05:24:18.514Z,-0.36
2022-12-15T05:27:04.564Z,-0.43
2022-12-15T05:29:50.693Z,-0.39
2022-12-15T05:32:19.016Z,-0.39
2022-12-15T05:34:49.011Z,-0.20
2022-12-15T05:37:17.530Z,-0.44
2022-12-15T05:39:46.071Z,-0.46
2022-12-15T05:42:14.274Z,-0.50
2022-12-15T05:44:43.471Z,-0.41
2022-12-15T05:47:12.777Z,-0.11
2022-12-15T05:49:41.426Z,-0.31
2022-12-15T05:52:10.971Z,-0.12
2022-12-15T05:54:39.532Z,-0.37
2022-12-15T05:57:08.100Z,-0.39
2022-12-15T05:59:36.633Z,-0.38
2022-12-15T06:02:04.956Z,-0.32
2022-12-15T06:04:33.599Z,-0.36
2022-12-15T06:07:01.893Z,-0.26
2022-12-15T06:09:31.985Z,-0.00
2022-12-15T06:12:00.216Z,-0.28
2022-12-15T06:14:28.773Z,-0.37
2022-12-15T06:16:57.116Z,-0.31
2022-12-15T06:19:25.725Z,-0.29
2022-12-15T06:21:53.819Z,-0.38
2022-12-15T06:24:22.374Z,-0.41
2022-12-15T06:26:52.112Z,-0.17
2022-12-15T06:29:20.644Z,-0.42
2022-12-15T06:31:49.238Z,-0.34
2022-12-15T06:34:18.324Z,-0.26
2022-12-15T06:36:46.964Z,-0.35
2022-12-15T06:39:16.659Z,-0.31
2022-12-15T06:41:45.579Z,-0.27
2022-12-15T06:44:16.959Z,-0.09
2022-12-15T06:46:46.278Z,-0.43
2022-12-15T06:49:15.696Z,-0.34
2022-12-15T06:51:45.181Z,-0.42
2022-12-15T06:54:13.944Z,-0.38
2022-12-15T06:56:42.526Z,-0.45
2022-12-15T06:59:11.598Z,-0.28
2022-12-15T07:01:43.260Z,-0.06
2022-12-15T07:04:12.240Z,-0.32
2022-12-15T07:06:42.537Z,-0.13
2022-12-15T07:09:16.212Z,0.14
2022-12-15T07:11:45.304Z,-0.18
2022-12-15T07:14:13.798Z,-0.18
2022-12-15T07:16:43.444Z,0.13
2022-12-15T07:19:13.559Z,-0.11
2022-12-15T07:21:42.598Z,-0.18
2022-12-15T07:24:13.079Z,-0.01
2022-12-15T07:26:41.454Z,-0.25
2022-12-15T07:29:11.994Z,-0.20
2022-12-15T07:31:40.279Z,-0.34
2022-12-15T07:34:10.355Z,-0.11
2022-12-15T07:36:38.963Z,-0.17
2022-12-15T07:39:08.565Z,-0.20
2022-12-15T07:41:40.524Z,-0.22
2022-12-15T07:44:09.011Z,-0.21
2022-12-15T07:46:37.321Z,-0.18
2022-12-15T07:49:05.870Z,-0.11
2022-12-15T07:51:36.061Z,0.19
2022-12-15T07:54:04.813Z,-0.02
2022-12-15T07:56:38.866Z,-0.08
2022-12-15T07:59:08.889Z,0.14
2022-12-15T08:01:37.168Z,0.09
2022-12-15T08:04:06.232Z,0.19
2022-12-15T08:06:35.916Z,0.51
2022-12-15T08:09:04.761Z,0.38
2022-12-15T08:11:35.429Z,0.54
2022-12-15T08:14:07.054Z,0.33
2022-12-15T08:16:38.755Z,0.27
2022-12-15T08:19:08.934Z,0.48
2022-12-15T08:21:40.220Z,0.59
2022-12-15T08:24:09.228Z,0.31
2022-12-15T08:26:38.586Z,0.46
2022-12-15T08:29:48.969Z,0.52
2022-12-15T08:31:57.583Z,0.40
2022-12-15T08:34:26.145Z,0.42
2022-12-15T08:36:55.887Z,0.70
2022-12-15T08:39:24.355Z,0.44
2022-12-15T08:41:52.704Z,0.38
2022-12-15T08:44:21.583Z,0.35
2022-12-15T08:46:49.830Z,0.30
2022-12-15T08:49:21.979Z,0.39
2022-12-15T08:51:51.507Z,0.57
2022-12-15T08:54:21.899Z,0.83
2022-12-15T08:56:50.286Z,0.48
2022-12-15T08:59:19.552Z,0.56
2022-12-15T09:01:47.936Z,0.53
2022-12-15T09:04:16.736Z,0.49
2022-12-15T09:06:50.244Z,0.65
2022-12-15T09:09:21.168Z,0.77
2022-12-15T09:11:49.935Z,0.88
2022-12-15T09:14:25.575Z,0.96
2022-12-15T09:16:57.069Z,0.73
2022-12-15T09:19:25.630Z,0.73
2022-12-15T09:21:53.815Z,0.82
2022-12-15T09:24:33.943Z,1.03
2022-12-15T09:27:04.313Z,0.96
2022-12-15T09:29:33.406Z,0.93
2022-12-15T09:32:01.579Z,0.91
2022-12-15T09:34:31.050Z,0.95
2022-12-15T09:36:59.241Z,0.88
2022-12-15T09:39:29.217Z,1.22
2022-12-15T09:42:01.660Z,1.28
2022-12-15T09:44:31.617Z,1.21
2022-12-15T09:47:08.006Z,1.28
2022-12-15T09:49:43.829Z,1.28
2022-12-15T09:52:13.728Z,1.17
2022-12-15T09:54:44.788Z,1.26
2022-12-15T09:57:27.694Z,1.33
2022-12-15T10:00:06.404Z,1.46
2022-12-15T10:03:08.218Z,1.61
2022-12-15T10:06:06.823Z,1.52
2022-12-15T10:08:35.508Z,1.53
2022-12-15T10:11:07.305Z,1.51
2022-12-15T10:13:42.219Z,1.54
2022-12-15T10:16:18.719Z,1.62
2022-12-15T10:18:59.426Z,1.51
2022-12-15T10:21:32.478Z,1.55
2022-12-15T10:24:04.011Z,1.69
2022-12-15T10:26:36.089Z,1.87
2022-12-15T10:29:14.271Z,1.93
2022-12-15T10:31:47.135Z,1.94
2022-12-15T10:34:25.790Z,1.86
2022-12-15T10:36:55.286Z,1.63
2022-12-15T10:39:26.002Z,1.64
2022-12-15T10:42:21.105Z,2.03
2022-12-15T10:44:50.911Z,1.61
2022-12-15T10:47:24.100Z,1.93
2022-12-15T10:49:52.383Z,1.54
2022-12-15T10:52:25.271Z,1.89
2022-12-15T10:54:54.961Z,1.75
2022-12-15T10:57:31.875Z,1.84
2022-12-15T11:00:28.258Z,2.05
2022-12-15T11:02:57.198Z,1.56
2022-12-15T11:05:25.970Z,1.61
2022-12-15T11:07:56.050Z,1.72
2022-12-15T11:10:26.325Z,1.74
2022-12-15T11:13:01.435Z,2.00
2022-12-15T11:15:45.637Z,2.12
2022-12-15T11:18:30.853Z,2.18
2022-12-15T11:21:03.712Z,2.06
2022-12-15T11:23:46.798Z,2.16
2022-12-15T11:26:26.237Z,2.10
2022-12-15T11:29:00.824Z,2.08
2022-12-15T11:31:34.105Z,2.10
2022-12-15T11:34:02.690Z,1.70
2022-12-15T11:36:51.003Z,2.21
2022-12-15T11:39:28.681Z,2.06
2022-12-15T11:42:01.396Z,2.06
2022-12-15T11:44:38.139Z,2.20
2022-12-15T11:47:15.587Z,2.19
2022-12-15T11:50:09.815Z,2.23
2022-12-15T11:53:02.130Z,2.25
2022-12-15T11:55:41.283Z,2.03
2022-12-15T11:58:48.764Z,2.27
2022-12-15T12:01:43.123Z,2.07
2022-12-15T12:04:22.202Z,2.03
2022-12-15T12:07:00.395Z,2.11
2022-12-15T12:09:34.449Z,2.10
2022-12-15T12:12:13.260Z,2.14
2022-12-15T12:14:50.594Z,1.97
2022-12-15T12:17:31.648Z,2.04
2022-12-15T12:20:04.972Z,1.79
2022-12-15T12:22:40.618Z,1.92
2022-12-15T12:25:13.577Z,1.93
2022-12-15T12:27:48.602Z,1.98
2022-12-15T12:30:21.492Z,1.90
2022-12-15T12:32:55.420Z,1.93
2022-12-15T12:35:33.481Z,1.87
2022-12-15T12:38:04.504Z,1.61
2022-12-15T12:40:47.908Z,1.84
2022-12-15T12:43:29.480Z,1.85
2022-12-15T12:46:00.873Z,1.52
2022-12-15T12:48:33.241Z,1.61
2022-12-15T12:51:14.214Z,1.84
2022-12-15T12:53:43.209Z,1.39
2022-12-15T12:56:50.454Z,1.85
2022-12-15T12:59:43.275Z,1.87
2022-12-15T13:02:48.089Z,1.97
2022-12-15T13:05:30.001Z,1.84
2022-12-15T13:08:18.574Z,1.90
2022-12-15T13:10:50.877Z,1.26
2022-12-15T13:13:38.857Z,1.51
2022-12-15T13:16:10.972Z,1.40
2022-12-15T13:19:03.627Z,1.64
2022-12-15T13:21:54.384Z,1.71
2022-12-15T13:24:29.702Z,1.46
2022-12-15T13:27:06.578Z,1.56
2022-12-15T13:29:35.109Z,1.24
2022-12-15T13:32:04.041Z,0.93
2022-12-15T13:34:39.623Z,1.20
2022-12-15T13:37:46.845Z,1.30
2022-12-15T13:40:52.174Z,1.30
2022-12-15T13:43:42.303Z,1.18
2022-12-15T13:46:17.664Z,1.08
2022-12-15T13:48:49.378Z,0.81
2022-12-15T13:51:27.537Z,1.02
2022-12-15T13:54:01.315Z,0.93
2022-12-15T13:56:46.851Z,1.03
2022-12-15T13:59:28.003Z,1.00
2022-12-15T14:01:56.320Z,0.68
2022-12-15T14:04:24.813Z,0.72
2022-12-15T14:06:55.553Z,1.00
2022-12-15T14:09:28.767Z,1.09
2022-12-15T14:11:57.376Z,0.84
2022-12-15T14:14:27.812Z,0.97
2022-12-15T14:17:01.547Z,1.25
2022-12-15T14:19:39.135Z,1.22
2022-12-15T14:25:18.227Z,1.08
2022-12-15T14:27:50.570Z,0.57
2022-12-15T14:30:24.327Z,0.85
2022-12-15T14:32:55.879Z,0.82
2022-12-15T14:35:28.885Z,0.64
2022-12-15T14:37:59.281Z,0.31
2022-12-15T14:40:30.280Z,0.27
2022-12-15T14:42:59.046Z,0.10
2022-12-15T14:45:29.904Z,0.25
2022-12-15T14:48:38.868Z,0.20
2022-12-15T14:50:49.840Z,-0.15
2022-12-15T14:53:21.104Z,0.11
2022-12-15T14:55:51.522Z,0.16
2022-12-15T14:58:28.386Z,0.46
2022-12-15T15:00:57.554Z,0.15
2022-12-15T15:03:35.700Z,0.45
2022-12-15T15:06:06.689Z,0.35
2022-12-15T15:08:37.380Z,0.43
2022-12-15T15:11:26.978Z,0.82
2022-12-15T15:13:56.360Z,0.61
2022-12-15T15:16:25.281Z,0.52
2022-12-15T15:18:56.278Z,0.82
2022-12-15T15:21:26.596Z,0.82
2022-12-15T15:24:02.855Z,1.11
2022-12-15T15:26:32.921Z,0.95
2022-12-15T15:29:01.268Z,0.68
2022-12-15T15:31:40.453Z,1.03
2022-12-15T15:34:09.491Z,0.74
2022-12-15T15:36:39.515Z,0.92
2022-12-15T15:39:14.757Z,1.05
2022-12-15T15:41:44.864Z,0.65
2022-12-15T15:44:14.814Z,0.71
2022-12-15T15:46:47.061Z,0.91
2022-12-15T15:49:17.432Z,0.88
2022-12-15T15:51:46.098Z,0.69
2022-12-15T15:54:15.625Z,0.83
2022-12-15T15:56:45.455Z,0.97
2022-12-15T15:59:15.320Z,0.77
2022-12-15T16:01:44.074Z,0.33
2022-12-15T16:04:12.742Z,0.39
2022-12-15T16:06:47.098Z,0.39
2022-12-15T16:09:17.080Z,-0.02
2022-12-15T16:11:47.945Z,-0.15
2022-12-15T16:14:17.759Z,-0.29
2022-12-15T16:16:46.340Z,-0.70
2022-12-15T16:19:14.612Z,-0.83
2022-12-15T16:21:44.356Z,-0.71
2022-12-15T16:24:15.760Z,-0.76
2022-12-15T16:26:48.539Z,-0.86
2022-12-15T16:29:19.061Z,-0.99
2022-12-15T16:31:47.767Z,-1.08
2022-12-15T16:34:17.720Z,-0.78
2022-12-15T16:36:46.378Z,-0.86
2022-12-15T16:39:26.089Z,-0.81
2022-12-15T16:41:57.329Z,-0.90
2022-12-15T16:44:26.664Z,-0.93
2022-12-15T16:46:55.332Z,-1.17
2022-12-15T16:49:23.938Z,-1.09
2022-12-15T16:51:53.850Z,-0.77
2022-12-15T16:54:24.961Z,-0.73
2022-12-15T16:56:53.844Z,-0.33
2022-12-15T16:59:33.937Z,-0.70
2022-12-15T17:02:03.581Z,-0.97
2022-12-15T17:04:31.957Z,-0.98
2022-12-15T17:07:00.509Z,-0.92
2022-12-15T17:09:29.501Z,-0.88
2022-12-15T17:11:58.573Z,-0.77
2022-12-15T17:14:28.249Z,-0.72
2022-12-15T17:16:56.679Z,-1.00
2022-12-15T17:19:24.878Z,-0.86
2022-12-15T17:21:54.794Z,-0.56
2022-12-15T17:24:23.284Z,-0.74
2022-12-15T17:26:51.988Z,-0.77
2022-12-15T17:29:22.044Z,-0.87
2022-12-15T17:31:52.268Z,-0.78
2022-12-15T17:34:28.247Z,-0.52
2022-12-15T17:36:57.947Z,-0.72
2022-12-15T17:39:27.279Z,-0.81
2022-12-15T17:42:00.996Z,-1.15
2022-12-15T17:44:34.794Z,-0.90
2022-12-15T17:47:07.258Z,-0.74
2022-12-15T17:49:37.481Z,-1.19
2022-12-15T17:52:09.298Z,-1.17
2022-12-15T17:54:37.660Z,-1.64
2022-12-15T17:57:06.629Z,-1.37
2022-12-15T17:59:34.848Z,-1.35
2022-12-15T18:02:03.415Z,-1.36
2022-12-15T18:04:33.026Z,-1.30
2022-12-15T18:07:02.716Z,-1.36
2022-12-15T18:09:31.563Z,-1.16
2022-12-15T18:12:00.135Z,-1.28
2022-12-15T18:14:28.938Z,-1.05
2022-12-15T18:16:57.566Z,-1.22
2022-12-15T18:19:28.965Z,-1.41
2022-12-15T18:22:01.645Z,-0.99
2022-12-15T18:24:29.917Z,-1.25
2022-12-15T18:26:58.373Z,-1.24
2022-12-15T18:29:26.578Z,-1.25
2022-12-15T18:31:55.086Z,-1.67
2022-12-15T18:34:23.384Z,-1.64
2022-12-15T18:36:52.502Z,-1.39
2022-12-15T18:39:24.351Z,-0.96
2022-12-15T18:41:54.811Z,-1.27
2022-12-15T18:44:24.390Z,-1.02
2022-12-15T18:46:52.919Z,-1.21
2022-12-15T18:49:23.766Z,-0.98
2022-12-15T18:51:52.321Z,-1.04
2022-12-15T18:54:23.896Z,-0.69
2022-12-15T18:56:52.668Z,-0.92
2022-12-15T18:59:23.110Z,-1.03
2022-12-15T19:01:51.760Z,-0.97
2022-12-15T19:04:20.034Z,-0.88
2022-12-15T19:06:48.473Z,-1.71
2022-12-15T19:09:19.243Z,-1.27
2022-12-15T19:12:12.950Z,-1.04
2022-12-15T19:14:44.018Z,-1.73
2022-12-15T19:17:31.575Z,-1.68
2022-12-15T19:20:17.866Z,-2.26
2022-12-15T19:22:47.254Z,-2.12
2022-12-15T19:25:25.094Z,-1.64
2022-12-15T19:27:59.331Z,-1.75
2022-12-15T19:30:29.189Z,-1.80
2022-12-15T19:32:57.782Z,-1.99
2022-12-15T19:35:27.439Z,-1.93
2022-12-15T19:37:57.199Z,-1.96
2022-12-15T19:40:30.565Z,-1.87
2022-12-15T19:43:01.243Z,-1.83
2022-12-15T19:45:31.331Z,-2.08
2022-12-15T19:48:00.314Z,-1.75
2022-12-15T19:50:33.698Z,-1.49
2022-12-15T19:53:04.899Z,-1.57
2022-12-15T19:55:35.335Z,-1.66
2022-12-15T19:58:13.518Z,-1.65
2022-12-15T20:00:41.830Z,-1.83
2022-12-15T20:03:10.463Z,-1.92
2022-12-15T20:05:39.142Z,-1.76
2022-12-15T20:08:07.811Z,-1.60
2022-12-15T20:10:36.207Z,-1.56
2022-12-15T20:13:04.933Z,-1.55
2022-12-15T20:15:35.054Z,-1.46
2022-12-15T20:18:03.646Z,-1.90
2022-12-15T20:20:33.535Z,-1.53
2022-12-15T20:23:05.175Z,-1.76
2022-12-15T20:25:34.489Z,-1.16
2022-12-15T20:28:04.446Z,-1.75
2022-12-15T20:30:35.917Z,-1.49
2022-12-15T20:33:05.709Z,-1.40
2022-12-15T20:35:34.931Z,-1.70
2022-12-15T20:38:13.556Z,-1.73
2022-12-15T20:40:41.911Z,-2.13
2022-12-15T20:43:13.477Z,-1.64
2022-12-15T20:45:43.162Z,-1.33
2022-12-15T20:48:13.702Z,-1.92
2022-12-15T20:50:44.298Z,-2.22
2022-12-15T20:53:17.800Z,-1.59
2022-12-15T20:55:46.099Z,-2.34
2022-12-15T20:58:14.804Z,-2.02
2022-12-15T21:00:44.693Z,-1.70
2022-12-15T21:03:23.009Z,-1.26
2022-12-15T21:05:52.253Z,-1.44
2022-12-15T21:08:24.262Z,-1.67
2022-12-15T21:10:54.015Z,-1.56
2022-12-15T21:13:26.426Z,-1.67
2022-12-15T21:15:56.238Z,-1.93
2022-12-15T21:21:18.963Z,-1.53
2022-12-15T21:23:47.845Z,-1.88
2022-12-15T21:26:19.933Z,-1.51
2022-12-15T21:28:48.770Z,-2.14
2022-12-15T21:31:19.250Z,-1.70
2022-12-15T21:33:47.852Z,-2.00
2022-12-15T21:36:17.230Z,-2.19
2022-12-15T21:38:46.966Z,-1.97
2022-12-15T21:41:17.539Z,-1.80
2022-12-15T21:43:46.384Z,-2.06
2022-12-15T21:46:16.406Z,-1.77
2022-12-15T21:49:03.863Z,-2.01
2022-12-15T21:51:35.813Z,-1.64
2022-12-15T21:54:05.412Z,-2.00
2022-12-15T21:56:33.681Z,-2.39
2022-12-15T21:59:02.284Z,-2.72
2022-12-15T22:01:31.764Z,-1.96
2022-12-15T22:04:02.987Z,-2.23
2022-12-15T22:06:31.493Z,-2.39
2022-12-15T22:09:00.256Z,-2.55
2022-12-15T22:11:30.784Z,-2.44
2022-12-15T22:14:02.471Z,-2.64
2022-12-15T22:16:30.760Z,-2.88
2022-12-15T22:19:01.103Z,-2.02
2022-12-15T22:21:29.226Z,-2.06
2022-12-15T22:23:57.635Z,-2.67
2022-12-15T22:26:29.249Z,-2.14
2022-12-15T22:29:00.320Z,-2.29
2022-12-15T22:31:29.596Z,-2.87
2022-12-15T22:33:58.102Z,-2.26
2022-12-15T22:36:27.648Z,-2.15
2022-12-15T22:38:56.135Z,-2.26
2022-12-15T22:41:25.269Z,-1.80
2022-12-15T22:43:55.284Z,-1.73
2022-12-15T22:46:26.806Z,-1.81
2022-12-15T22:48:55.474Z,-2.31
2022-12-15T22:51:23.715Z,-2.42
2022-12-15T22:53:53.880Z,-2.27
2022-12-15T22:56:25.659Z,-2.01
2022-12-15T22:58:55.328Z,-1.93
2022-12-15T23:01:23.580Z,-2.61
2022-12-15T23:03:52.359Z,-2.72
2022-12-15T23:06:20.755Z,-2.32
2022-12-15T23:08:55.667Z,-2.30
2022-12-15T23:11:40.014Z,-2.64
2022-12-15T23:14:10.638Z,-2.79
2022-12-15T23:16:38.100Z,-2.89
2022-12-15T23:19:08.360Z,-3.44
2022-12-15T23:21:37.135Z,-2.91
2022-12-15T23:24:06.019Z,-2.87
2022-12-15T23:26:35.709Z,-2.45
2022-12-15T23:29:04.140Z,-3.26
2022-12-15T23:31:32.670Z,-3.38
2022-12-15T23:34:01.210Z,-3.04
2022-12-15T23:36:29.477Z,-2.87
2022-12-15T23:38:58.896Z,-2.83
2022-12-15T23:41:29.385Z,-3.51
2022-12-15T23:43:59.309Z,-3.38
2022-12-15T23:46:27.702Z,-3.73
2022-12-15T23:48:56.201Z,-3.73
2022-12-15T23:51:24.545Z,-3.56
2022-12-15T23:53:53.034Z,-3.80
2022-12-15T23:56:25.263Z,-3.12
2022-12-15T23:58:56.525Z,-2.90
